createdAt,value
2023-05-04T00:07:03.502Z,11.9
2023-05-04T00:20:03.671Z,12.3
2023-05-04T00:33:03.536Z,12.6
2023-05-04T00:46:03.503Z,12.0
2023-05-04T00:59:03.514Z,11.6
2023-05-04T01:12:03.523Z,11.2
2023-05-04T01:25:03.561Z,11.0
2023-05-04T01:38:03.532Z,11.6
2023-05-04T01:51:03.518Z,11.2
2023-05-04T02:04:03.691Z,11.4
2023-05-04T02:17:03.525Z,10.3
2023-05-04T02:30:03.629Z,10.2
2023-05-04T02:43:03.536Z,9.8
2023-05-04T02:56:03.539Z,9.6
2023-05-04T03:09:03.583Z,9.7
2023-05-04T03:22:03.558Z,10.2
2023-05-04T03:35:04.087Z,9.4
2023-05-04T03:48:03.587Z,8.9
2023-05-04T04:02:03.575Z,8.6
2023-05-04T04:16:03.583Z,8.5
2023-05-04T04:30:03.741Z,8.4
2023-05-04T04:44:03.568Z,8.7
2023-05-04T04:58:03.590Z,9.2
2023-05-04T05:12:03.584Z,9.5
2023-05-04T05:26:03.674Z,9.9
2023-05-04T05:40:03.717Z,10.9
2023-05-04T05:54:03.675Z,12.3
2023-05-04T06:08:03.668Z,12.7
2023-05-04T06:22:03.656Z,13.8
2023-05-04T06:36:03.660Z,19.0
2023-05-04T06:50:03.839Z,20.3
2023-05-04T07:04:03.711Z,21.6
2023-05-04T07:18:03.762Z,20.9
2023-05-04T07:31:03.679Z,22.2
2023-05-04T07:49:03.669Z,19.8
2023-05-04T08:03:03.831Z,22.1
2023-05-04T08:17:03.742Z,22.7
2023-05-04T08:31:03.761Z,23.2
2023-05-04T08:45:03.892Z,23.2
2023-05-04T08:59:03.772Z,22.6
2023-05-04T09:13:03.782Z,24.1
2023-05-04T09:27:03.778Z,24.0
2023-05-04T09:41:03.783Z,23.6
2023-05-04T09:55:03.886Z,24.0
2023-05-04T10:09:03.802Z,24.4
2023-05-04T10:24:03.776Z,24.5
2023-05-04T10:38:03.794Z,24.8
2023-05-04T10:52:03.775Z,25.0
2023-05-04T11:06:03.809Z,24.5
2023-05-04T11:20:03.812Z,24.7
2023-05-04T11:34:03.789Z,25.2
2023-05-04T11:48:03.880Z,25.6
2023-05-04T12:02:03.823Z,25.4
2023-05-04T12:16:04.673Z,26.0
2023-05-04T12:32:03.888Z,26.4
2023-05-04T12:46:05.513Z,25.1
2023-05-04T13:02:03.834Z,24.0
2023-05-04T13:16:05.509Z,23.5
2023-05-04T13:30:05.402Z,23.1
2023-05-04T13:46:03.890Z,23.5
2023-05-04T14:07:03.865Z,22.6
2023-05-04T14:21:03.882Z,22.1
2023-05-04T14:35:03.960Z,22.0
2023-05-04T14:49:03.865Z,22.2
2023-05-04T15:03:03.969Z,23.0
2023-05-04T15:17:03.889Z,23.2
2023-05-04T15:31:03.896Z,21.7
2023-05-04T15:47:03.959Z,21.3
2023-05-04T16:01:04.130Z,22.1
2023-05-04T16:15:03.970Z,23.1
2023-05-04T16:29:04.054Z,22.8
2023-05-04T16:43:03.899Z,23.3
2023-05-04T16:57:03.891Z,21.9
2023-05-04T17:11:03.895Z,21.1
2023-05-04T17:25:03.929Z,20.4
2023-05-04T17:39:03.900Z,20.0
2023-05-04T17:53:03.912Z,18.8
2023-05-04T18:07:03.903Z,17.7
2023-05-04T18:21:03.918Z,16.8
2023-05-04T18:35:03.932Z,16.1
2023-05-04T18:49:03.927Z,15.4
2023-05-04T19:03:03.981Z,15.1
2023-05-04T19:16:03.961Z,14.7
2023-05-04T19:29:03.929Z,14.3
2023-05-04T19:42:03.954Z,14.4
2023-05-04T19:55:03.960Z,13.9
2023-05-04T20:08:05.245Z,14.0
2023-05-04T20:21:03.966Z,14.1
2023-05-04T20:34:03.975Z,13.3
2023-05-04T20:47:03.970Z,13.0
2023-05-04T21:00:03.997Z,12.8
2023-05-04T21:13:04.039Z,12.6
2023-05-04T21:26:04.016Z,12.5
2023-05-04T21:39:03.994Z,12.4
2023-05-04T21:52:04.031Z,12.3
2023-05-04T22:05:04.045Z,12.0
2023-05-04T22:18:04.062Z,11.6
2023-05-04T22:31:04.060Z,11.5
2023-05-04T22:44:04.057Z,11.3
2023-05-04T22:57:04.066Z,11.3
2023-05-04T23:10:04.058Z,11.3
2023-05-04T23:23:04.075Z,11.1
2023-05-04T23:36:04.083Z,11.3
2023-05-04T23:49:04.072Z,11.6
